sensor_id;sensor_type;location;lat;lon;timestamp;P1;durP1;ratioP1;P2;durP2;ratioP2
18929;SDS011;43305;52.186;5.598;2023-09-19T00:00:10;12.60;;;2.45;;
18929;SDS011;43305;52.186;5.598;2023-09-19T00:02:38;13.80;;;2.78;;
18929;SDS011;43305;52.186;5.598;2023-09-19T00:05:05;11.15;;;2.35;;
18929;SDS011;43305;52.186;5.598;2023-09-19T00:07:33;9.65;;;2.60;;
18929;SDS011;43305;52.186;5.598;2023-09-19T00:10:02;12.27;;;2.70;;
18929;SDS011;43305;52.186;5.598;2023-09-19T00:12:30;11.45;;;2.50;;
18929;SDS011;43305;52.186;5.598;2023-09-19T00:14:58;9.85;;;2.38;;
18929;SDS011;43305;52.186;5.598;2023-09-19T00:17:27;13.20;;;2.67;;
18929;SDS011;43305;52.186;5.598;2023-09-19T00:19:57;11.10;;;2.85;;
18929;SDS011;43305;52.186;5.598;2023-09-19T00:22:25;11.05;;;2.42;;
18929;SDS011;43305;52.186;5.598;2023-09-19T00:24:52;10.70;;;2.42;;
18929;SDS011;43305;52.186;5.598;2023-09-19T00:27:20;11.38;;;2.58;;
18929;SDS011;43305;52.186;5.598;2023-09-19T00:29:47;11.90;;;2.70;;
18929;SDS011;43305;52.186;5.598;2023-09-19T00:32:14;9.70;;;2.30;;
18929;SDS011;43305;52.186;5.598;2023-09-19T00:34:42;10.85;;;2.35;;
18929;SDS011;43305;52.186;5.598;2023-09-19T00:37:09;7.68;;;2.35;;
18929;SDS011;43305;52.186;5.598;2023-09-19T00:39:37;12.95;;;2.65;;
18929;SDS011;43305;52.186;5.598;2023-09-19T00:42:06;9.38;;;2.35;;
18929;SDS011;43305;52.186;5.598;2023-09-19T00:44:33;7.10;;;2.20;;
18929;SDS011;43305;52.186;5.598;2023-09-19T00:47:02;8.27;;;2.22;;
18929;SDS011;43305;52.186;5.598;2023-09-19T00:49:30;10.57;;;2.40;;
18929;SDS011;43305;52.186;5.598;2023-09-19T00:52:00;9.02;;;1.98;;
18929;SDS011;43305;52.186;5.598;2023-09-19T00:54:34;11.82;;;2.45;;
18929;SDS011;43305;52.186;5.598;2023-09-19T00:57:02;7.97;;;2.10;;
18929;SDS011;43305;52.186;5.598;2023-09-19T00:59:29;12.15;;;2.35;;
18929;SDS011;43305;52.186;5.598;2023-09-19T01:02:00;9.18;;;2.35;;
18929;SDS011;43305;52.186;5.598;2023-09-19T01:04:29;10.88;;;2.45;;
18929;SDS011;43305;52.186;5.598;2023-09-19T01:06:58;7.38;;;2.10;;
18929;SDS011;43305;52.186;5.598;2023-09-19T01:09:29;10.27;;;2.40;;
18929;SDS011;43305;52.186;5.598;2023-09-19T01:11:57;11.27;;;2.33;;
18929;SDS011;43305;52.186;5.598;2023-09-19T01:14:29;11.05;;;2.42;;
18929;SDS011;43305;52.186;5.598;2023-09-19T01:17:06;12.13;;;2.50;;
18929;SDS011;43305;52.186;5.598;2023-09-19T01:20:00;8.18;;;2.20;;
18929;SDS011;43305;52.186;5.598;2023-09-19T01:22:40;14.10;;;2.30;;
18929;SDS011;43305;52.186;5.598;2023-09-19T01:25:19;8.80;;;2.33;;
18929;SDS011;43305;52.186;5.598;2023-09-19T01:28:06;12.25;;;2.75;;
18929;SDS011;43305;52.186;5.598;2023-09-19T01:30:48;16.08;;;2.75;;
18929;SDS011;43305;52.186;5.598;2023-09-19T01:33:22;11.48;;;2.58;;
18929;SDS011;43305;52.186;5.598;2023-09-19T01:35:51;10.05;;;2.40;;
18929;SDS011;43305;52.186;5.598;2023-09-19T01:38:22;10.50;;;2.30;;
18929;SDS011;43305;52.186;5.598;2023-09-19T01:40:51;10.88;;;2.95;;
18929;SDS011;43305;52.186;5.598;2023-09-19T01:43:26;10.77;;;3.10;;
18929;SDS011;43305;52.186;5.598;2023-09-19T01:46:02;8.23;;;2.72;;
18929;SDS011;43305;52.186;5.598;2023-09-19T01:48:35;10.68;;;2.55;;
18929;SDS011;43305;52.186;5.598;2023-09-19T01:51:08;12.82;;;2.88;;
18929;SDS011;43305;52.186;5.598;2023-09-19T01:53:40;14.05;;;2.83;;
18929;SDS011;43305;52.186;5.598;2023-09-19T01:56:12;11.80;;;3.03;;
18929;SDS011;43305;52.186;5.598;2023-09-19T01:58:48;12.02;;;2.92;;
18929;SDS011;43305;52.186;5.598;2023-09-19T02:01:22;7.25;;;2.60;;
18929;SDS011;43305;52.186;5.598;2023-09-19T02:03:51;10.63;;;3.08;;
18929;SDS011;43305;52.186;5.598;2023-09-19T02:06:19;8.82;;;2.92;;
18929;SDS011;43305;52.186;5.598;2023-09-19T02:08:46;10.68;;;2.90;;
18929;SDS011;43305;52.186;5.598;2023-09-19T02:11:13;10.23;;;2.90;;
18929;SDS011;43305;52.186;5.598;2023-09-19T02:13:40;16.48;;;2.95;;
18929;SDS011;43305;52.186;5.598;2023-09-19T02:16:07;14.68;;;2.72;;
18929;SDS011;43305;52.186;5.598;2023-09-19T02:18:37;13.32;;;2.55;;
18929;SDS011;43305;52.186;5.598;2023-09-19T02:21:04;12.80;;;2.50;;
18929;SDS011;43305;52.186;5.598;2023-09-19T02:23:34;14.40;;;2.88;;
18929;SDS011;43305;52.186;5.598;2023-09-19T02:26:02;11.52;;;2.60;;
18929;SDS011;43305;52.186;5.598;2023-09-19T02:28:30;12.70;;;2.78;;
18929;SDS011;43305;52.186;5.598;2023-09-19T02:30:59;19.90;;;3.03;;
18929;SDS011;43305;52.186;5.598;2023-09-19T02:33:26;15.32;;;3.05;;
18929;SDS011;43305;52.186;5.598;2023-09-19T02:35:59;11.85;;;2.20;;
18929;SDS011;43305;52.186;5.598;2023-09-19T02:38:28;12.05;;;2.42;;
18929;SDS011;43305;52.186;5.598;2023-09-19T02:40:55;17.67;;;2.70;;
18929;SDS011;43305;52.186;5.598;2023-09-19T02:43:22;14.15;;;2.67;;
18929;SDS011;43305;52.186;5.598;2023-09-19T02:45:50;14.73;;;2.72;;
18929;SDS011;43305;52.186;5.598;2023-09-19T02:48:18;11.70;;;2.40;;
18929;SDS011;43305;52.186;5.598;2023-09-19T02:50:45;14.85;;;2.65;;
18929;SDS011;43305;52.186;5.598;2023-09-19T02:53:16;11.20;;;2.50;;
18929;SDS011;43305;52.186;5.598;2023-09-19T02:55:44;15.88;;;2.80;;
18929;SDS011;43305;52.186;5.598;2023-09-19T02:58:11;13.60;;;2.10;;
18929;SDS011;43305;52.186;5.598;2023-09-19T03:00:39;15.68;;;2.72;;
18929;SDS011;43305;52.186;5.598;2023-09-19T03:03:07;20.30;;;2.63;;
18929;SDS011;43305;52.186;5.598;2023-09-19T03:05:35;10.60;;;2.35;;
18929;SDS011;43305;52.186;5.598;2023-09-19T03:08:03;17.15;;;2.38;;
18929;SDS011;43305;52.186;5.598;2023-09-19T03:10:32;13.63;;;2.70;;
18929;SDS011;43305;52.186;5.598;2023-09-19T03:13:02;22.83;;;2.70;;
18929;SDS011;43305;52.186;5.598;2023-09-19T03:15:29;10.65;;;2.42;;
18929;SDS011;43305;52.186;5.598;2023-09-19T03:17:59;14.38;;;2.17;;
18929;SDS011;43305;52.186;5.598;2023-09-19T03:20:29;12.13;;;2.20;;
18929;SDS011;43305;52.186;5.598;2023-09-19T03:22:56;14.52;;;2.83;;
18929;SDS011;43305;52.186;5.598;2023-09-19T03:25:23;13.15;;;2.63;;
18929;SDS011;43305;52.186;5.598;2023-09-19T03:27:51;11.35;;;2.20;;
18929;SDS011;43305;52.186;5.598;2023-09-19T03:30:18;14.13;;;2.47;;
18929;SDS011;43305;52.186;5.598;2023-09-19T03:32:46;12.80;;;2.72;;
18929;SDS011;43305;52.186;5.598;2023-09-19T03:35:14;10.90;;;1.83;;
18929;SDS011;43305;52.186;5.598;2023-09-19T03:37:42;12.65;;;2.17;;
18929;SDS011;43305;52.186;5.598;2023-09-19T03:40:09;13.65;;;2.60;;
18929;SDS011;43305;52.186;5.598;2023-09-19T03:42:37;15.85;;;2.40;;
18929;SDS011;43305;52.186;5.598;2023-09-19T03:45:07;14.18;;;2.40;;
18929;SDS011;43305;52.186;5.598;2023-09-19T03:47:37;15.38;;;2.25;;
18929;SDS011;43305;52.186;5.598;2023-09-19T03:50:04;12.02;;;1.92;;
18929;SDS011;43305;52.186;5.598;2023-09-19T03:52:33;17.38;;;2.30;;
18929;SDS011;43305;52.186;5.598;2023-09-19T03:55:00;11.60;;;2.53;;
18929;SDS011;43305;52.186;5.598;2023-09-19T03:57:29;12.57;;;2.08;;
18929;SDS011;43305;52.186;5.598;2023-09-19T03:59:57;12.20;;;2.50;;
18929;SDS011;43305;52.186;5.598;2023-09-19T04:02:25;12.77;;;2.00;;
18929;SDS011;43305;52.186;5.598;2023-09-19T04:04:58;9.32;;;2.10;;
18929;SDS011;43305;52.186;5.598;2023-09-19T04:07:31;12.45;;;2.25;;
18929;SDS011;43305;52.186;5.598;2023-09-19T04:09:59;17.77;;;2.40;;
18929;SDS011;43305;52.186;5.598;2023-09-19T04:12:27;13.27;;;1.80;;
18929;SDS011;43305;52.186;5.598;2023-09-19T04:14:54;13.52;;;1.85;;
18929;SDS011;43305;52.186;5.598;2023-09-19T04:17:21;14.93;;;2.47;;
18929;SDS011;43305;52.186;5.598;2023-09-19T04:19:49;18.83;;;2.65;;
18929;SDS011;43305;52.186;5.598;2023-09-19T04:22:16;8.65;;;2.35;;
18929;SDS011;43305;52.186;5.598;2023-09-19T04:24:43;16.95;;;2.85;;
18929;SDS011;43305;52.186;5.598;2023-09-19T04:27:10;11.35;;;2.20;;
18929;SDS011;43305;52.186;5.598;2023-09-19T04:29:37;11.25;;;2.10;;
18929;SDS011;43305;52.186;5.598;2023-09-19T04:32:04;17.80;;;2.70;;
18929;SDS011;43305;52.186;5.598;2023-09-19T04:34:32;15.60;;;2.15;;
18929;SDS011;43305;52.186;5.598;2023-09-19T04:37:00;12.10;;;2.10;;
18929;SDS011;43305;52.186;5.598;2023-09-19T04:39:28;14.80;;;2.38;;
18929;SDS011;43305;52.186;5.598;2023-09-19T04:41:59;13.82;;;2.47;;
18929;SDS011;43305;52.186;5.598;2023-09-19T04:44:25;15.50;;;2.60;;
18929;SDS011;43305;52.186;5.598;2023-09-19T04:46:53;13.48;;;2.42;;
18929;SDS011;43305;52.186;5.598;2023-09-19T04:49:22;12.95;;;2.08;;
18929;SDS011;43305;52.186;5.598;2023-09-19T04:51:49;11.77;;;2.10;;
18929;SDS011;43305;52.186;5.598;2023-09-19T04:54:17;12.52;;;2.33;;
18929;SDS011;43305;52.186;5.598;2023-09-19T04:56:44;15.35;;;2.35;;
18929;SDS011;43305;52.186;5.598;2023-09-19T04:59:11;10.00;;;2.15;;
18929;SDS011;43305;52.186;5.598;2023-09-19T05:01:40;16.23;;;2.40;;
18929;SDS011;43305;52.186;5.598;2023-09-19T05:04:07;15.82;;;2.33;;
18929;SDS011;43305;52.186;5.598;2023-09-19T05:06:33;14.27;;;2.40;;
18929;SDS011;43305;52.186;5.598;2023-09-19T05:09:00;10.75;;;2.30;;
18929;SDS011;43305;52.186;5.598;2023-09-19T05:11:34;10.88;;;2.38;;
18929;SDS011;43305;52.186;5.598;2023-09-19T05:14:03;12.90;;;2.67;;
18929;SDS011;43305;52.186;5.598;2023-09-19T05:16:30;15.23;;;2.40;;
18929;SDS011;43305;52.186;5.598;2023-09-19T05:19:00;11.30;;;2.63;;
18929;SDS011;43305;52.186;5.598;2023-09-19T05:21:27;17.52;;;2.78;;
18929;SDS011;43305;52.186;5.598;2023-09-19T05:23:56;11.02;;;1.92;;
18929;SDS011;43305;52.186;5.598;2023-09-19T05:26:22;11.73;;;2.40;;
18929;SDS011;43305;52.186;5.598;2023-09-19T05:28:51;10.45;;;2.08;;
18929;SDS011;43305;52.186;5.598;2023-09-19T05:31:18;15.98;;;2.45;;
18929;SDS011;43305;52.186;5.598;2023-09-19T05:33:45;14.70;;;2.28;;
18929;SDS011;43305;52.186;5.598;2023-09-19T05:36:12;15.40;;;2.25;;
18929;SDS011;43305;52.186;5.598;2023-09-19T05:38:41;10.90;;;2.25;;
18929;SDS011;43305;52.186;5.598;2023-09-19T05:41:09;11.75;;;2.33;;
18929;SDS011;43305;52.186;5.598;2023-09-19T05:43:38;13.10;;;2.10;;
18929;SDS011;43305;52.186;5.598;2023-09-19T05:46:07;9.85;;;2.20;;
18929;SDS011;43305;52.186;5.598;2023-09-19T05:48:34;9.77;;;1.92;;
18929;SDS011;43305;52.186;5.598;2023-09-19T05:51:01;12.13;;;2.10;;
18929;SDS011;43305;52.186;5.598;2023-09-19T05:53:28;11.57;;;2.08;;
18929;SDS011;43305;52.186;5.598;2023-09-19T05:55:55;14.73;;;2.20;;
18929;SDS011;43305;52.186;5.598;2023-09-19T05:58:22;16.38;;;2.35;;
18929;SDS011;43305;52.186;5.598;2023-09-19T06:00:49;16.55;;;2.55;;
18929;SDS011;43305;52.186;5.598;2023-09-19T06:03:18;11.07;;;2.20;;
18929;SDS011;43305;52.186;5.598;2023-09-19T06:05:45;15.68;;;2.45;;
18929;SDS011;43305;52.186;5.598;2023-09-19T06:08:14;10.30;;;1.77;;
18929;SDS011;43305;52.186;5.598;2023-09-19T06:10:41;15.65;;;2.50;;
18929;SDS011;43305;52.186;5.598;2023-09-19T06:13:08;13.32;;;2.40;;
18929;SDS011;43305;52.186;5.598;2023-09-19T06:15:35;10.93;;;2.28;;
18929;SDS011;43305;52.186;5.598;2023-09-19T06:18:03;8.60;;;1.83;;
18929;SDS011;43305;52.186;5.598;2023-09-19T06:20:32;14.73;;;2.47;;
18929;SDS011;43305;52.186;5.598;2023-09-19T06:22:59;12.70;;;2.42;;
18929;SDS011;43305;52.186;5.598;2023-09-19T06:25:29;17.95;;;2.38;;
18929;SDS011;43305;52.186;5.598;2023-09-19T06:27:56;14.93;;;2.60;;
18929;SDS011;43305;52.186;5.598;2023-09-19T06:30:24;19.35;;;2.97;;
18929;SDS011;43305;52.186;5.598;2023-09-19T06:32:55;14.80;;;2.10;;
18929;SDS011;43305;52.186;5.598;2023-09-19T06:35:22;12.65;;;2.50;;
18929;SDS011;43305;52.186;5.598;2023-09-19T06:37:52;16.15;;;2.65;;
18929;SDS011;43305;52.186;5.598;2023-09-19T06:40:19;12.05;;;2.28;;
18929;SDS011;43305;52.186;5.598;2023-09-19T06:42:47;15.93;;;2.70;;
18929;SDS011;43305;52.186;5.598;2023-09-19T06:45:17;13.75;;;2.28;;
18929;SDS011;43305;52.186;5.598;2023-09-19T06:47:45;14.50;;;2.08;;
18929;SDS011;43305;52.186;5.598;2023-09-19T06:50:15;12.90;;;2.53;;
18929;SDS011;43305;52.186;5.598;2023-09-19T06:52:44;16.77;;;2.38;;
18929;SDS011;43305;52.186;5.598;2023-09-19T06:55:14;16.10;;;2.22;;
18929;SDS011;43305;52.186;5.598;2023-09-19T06:57:41;16.95;;;2.78;;
18929;SDS011;43305;52.186;5.598;2023-09-19T07:00:08;14.32;;;2.53;;
18929;SDS011;43305;52.186;5.598;2023-09-19T07:02:40;17.85;;;2.60;;
18929;SDS011;43305;52.186;5.598;2023-09-19T07:05:07;12.73;;;2.67;;
18929;SDS011;43305;52.186;5.598;2023-09-19T07:07:34;17.13;;;2.58;;
18929;SDS011;43305;52.186;5.598;2023-09-19T07:10:01;10.05;;;1.95;;
18929;SDS011;43305;52.186;5.598;2023-09-19T07:12:34;14.00;;;2.20;;
18929;SDS011;43305;52.186;5.598;2023-09-19T07:15:02;13.70;;;2.65;;
18929;SDS011;43305;52.186;5.598;2023-09-19T07:17:31;19.00;;;2.85;;
18929;SDS011;43305;52.186;5.598;2023-09-19T07:19:59;16.77;;;2.60;;
18929;SDS011;43305;52.186;5.598;2023-09-19T07:22:26;13.35;;;2.42;;
18929;SDS011;43305;52.186;5.598;2023-09-19T07:24:53;12.18;;;2.70;;
18929;SDS011;43305;52.186;5.598;2023-09-19T07:27:20;13.15;;;2.38;;
18929;SDS011;43305;52.186;5.598;2023-09-19T07:29:48;15.23;;;2.20;;
18929;SDS011;43305;52.186;5.598;2023-09-19T07:32:15;11.63;;;2.42;;
18929;SDS011;43305;52.186;5.598;2023-09-19T07:34:43;16.17;;;2.80;;
18929;SDS011;43305;52.186;5.598;2023-09-19T07:37:10;17.35;;;3.03;;
18929;SDS011;43305;52.186;5.598;2023-09-19T07:39:38;15.10;;;2.72;;
18929;SDS011;43305;52.186;5.598;2023-09-19T07:42:06;12.00;;;2.70;;
18929;SDS011;43305;52.186;5.598;2023-09-19T07:44:34;14.70;;;2.67;;
18929;SDS011;43305;52.186;5.598;2023-09-19T07:47:03;16.95;;;2.83;;
18929;SDS011;43305;52.186;5.598;2023-09-19T07:49:30;15.32;;;2.50;;
18929;SDS011;43305;52.186;5.598;2023-09-19T07:51:58;15.57;;;2.67;;
18929;SDS011;43305;52.186;5.598;2023-09-19T07:54:25;12.60;;;2.28;;
18929;SDS011;43305;52.186;5.598;2023-09-19T07:56:55;15.45;;;2.55;;
18929;SDS011;43305;52.186;5.598;2023-09-19T07:59:23;18.40;;;2.53;;
18929;SDS011;43305;52.186;5.598;2023-09-19T08:01:49;13.95;;;2.35;;
18929;SDS011;43305;52.186;5.598;2023-09-19T08:04:18;14.90;;;2.25;;
18929;SDS011;43305;52.186;5.598;2023-09-19T08:06:45;17.42;;;2.63;;
18929;SDS011;43305;52.186;5.598;2023-09-19T08:09:12;17.00;;;3.15;;
18929;SDS011;43305;52.186;5.598;2023-09-19T08:11:45;19.38;;;2.65;;
18929;SDS011;43305;52.186;5.598;2023-09-19T08:14:12;15.25;;;2.70;;
18929;SDS011;43305;52.186;5.598;2023-09-19T08:16:40;12.43;;;2.45;;
18929;SDS011;43305;52.186;5.598;2023-09-19T08:19:07;19.67;;;2.85;;
18929;SDS011;43305;52.186;5.598;2023-09-19T08:21:37;12.35;;;2.53;;
18929;SDS011;43305;52.186;5.598;2023-09-19T08:24:04;13.32;;;3.22;;
18929;SDS011;43305;52.186;5.598;2023-09-19T08:26:32;18.92;;;2.80;;
18929;SDS011;43305;52.186;5.598;2023-09-19T08:29:02;14.40;;;2.30;;
18929;SDS011;43305;52.186;5.598;2023-09-19T08:31:33;22.88;;;3.88;;
18929;SDS011;43305;52.186;5.598;2023-09-19T08:34:00;16.80;;;2.80;;
18929;SDS011;43305;52.186;5.598;2023-09-19T08:36:29;16.15;;;2.90;;
18929;SDS011;43305;52.186;5.598;2023-09-19T08:38:57;16.98;;;2.28;;
18929;SDS011;43305;52.186;5.598;2023-09-19T08:41:24;12.57;;;2.60;;
18929;SDS011;43305;52.186;5.598;2023-09-19T08:43:51;13.52;;;2.60;;
18929;SDS011;43305;52.186;5.598;2023-09-19T08:46:18;16.98;;;2.83;;
18929;SDS011;43305;52.186;5.598;2023-09-19T08:48:52;15.55;;;3.08;;
18929;SDS011;43305;52.186;5.598;2023-09-19T08:51:33;13.65;;;2.97;;
18929;SDS011;43305;52.186;5.598;2023-09-19T08:54:11;16.40;;;3.80;;
18929;SDS011;43305;52.186;5.598;2023-09-19T08:56:48;13.48;;;3.15;;
18929;SDS011;43305;52.186;5.598;2023-09-19T08:59:17;17.48;;;3.13;;
18929;SDS011;43305;52.186;5.598;2023-09-19T09:01:50;16.92;;;3.30;;
18929;SDS011;43305;52.186;5.598;2023-09-19T09:04:19;16.10;;;2.97;;
18929;SDS011;43305;52.186;5.598;2023-09-19T09:06:46;15.05;;;2.72;;
18929;SDS011;43305;52.186;5.598;2023-09-19T09:09:15;19.60;;;3.15;;
18929;SDS011;43305;52.186;5.598;2023-09-19T09:11:42;14.40;;;2.50;;
18929;SDS011;43305;52.186;5.598;2023-09-19T09:14:12;14.95;;;3.47;;
18929;SDS011;43305;52.186;5.598;2023-09-19T09:16:40;13.32;;;2.50;;
18929;SDS011;43305;52.186;5.598;2023-09-19T09:19:07;12.60;;;2.25;;
18929;SDS011;43305;52.186;5.598;2023-09-19T09:21:36;16.85;;;2.30;;
18929;SDS011;43305;52.186;5.598;2023-09-19T09:27:06;12.95;;;2.20;;
18929;SDS011;43305;52.186;5.598;2023-09-19T09:29:42;13.45;;;2.47;;
18929;SDS011;43305;52.186;5.598;2023-09-19T09:32:22;9.80;;;2.05;;
18929;SDS011;43305;52.186;5.598;2023-09-19T09:34:51;12.52;;;2.55;;
18929;SDS011;43305;52.186;5.598;2023-09-19T09:37:19;11.02;;;2.33;;
18929;SDS011;43305;52.186;5.598;2023-09-19T09:39:50;13.50;;;2.58;;
18929;SDS011;43305;52.186;5.598;2023-09-19T09:42:33;12.32;;;2.58;;
18929;SDS011;43305;52.186;5.598;2023-09-19T09:45:13;13.60;;;2.70;;
18929;SDS011;43305;52.186;5.598;2023-09-19T09:47:42;16.05;;;2.80;;
18929;SDS011;43305;52.186;5.598;2023-09-19T09:50:26;11.88;;;2.80;;
18929;SDS011;43305;52.186;5.598;2023-09-19T09:53:21;15.88;;;2.70;;
18929;SDS011;43305;52.186;5.598;2023-09-19T09:55:59;14.07;;;2.47;;
18929;SDS011;43305;52.186;5.598;2023-09-19T09:58:35;16.35;;;2.85;;
18929;SDS011;43305;52.186;5.598;2023-09-19T10:01:05;16.80;;;2.80;;
18929;SDS011;43305;52.186;5.598;2023-09-19T10:03:35;15.60;;;2.70;;
18929;SDS011;43305;52.186;5.598;2023-09-19T10:06:09;14.38;;;2.72;;
18929;SDS011;43305;52.186;5.598;2023-09-19T10:08:57;12.20;;;2.92;;
18929;SDS011;43305;52.186;5.598;2023-09-19T10:11:31;15.68;;;2.47;;
18929;SDS011;43305;52.186;5.598;2023-09-19T10:14:06;14.40;;;2.67;;
18929;SDS011;43305;52.186;5.598;2023-09-19T10:16:37;10.57;;;2.30;;
18929;SDS011;43305;52.186;5.598;2023-09-19T10:19:10;12.13;;;2.17;;
18929;SDS011;43305;52.186;5.598;2023-09-19T10:21:42;15.45;;;2.38;;
18929;SDS011;43305;52.186;5.598;2023-09-19T10:24:11;12.27;;;2.08;;
18929;SDS011;43305;52.186;5.598;2023-09-19T10:26:41;14.63;;;2.30;;
18929;SDS011;43305;52.186;5.598;2023-09-19T10:29:11;15.80;;;2.40;;
18929;SDS011;43305;52.186;5.598;2023-09-19T10:31:41;11.25;;;1.88;;
18929;SDS011;43305;52.186;5.598;2023-09-19T10:34:12;18.40;;;2.25;;
18929;SDS011;43305;52.186;5.598;2023-09-19T10:36:41;12.07;;;2.15;;
18929;SDS011;43305;52.186;5.598;2023-09-19T10:39:12;12.52;;;2.03;;
18929;SDS011;43305;52.186;5.598;2023-09-19T10:41:43;13.32;;;2.30;;
18929;SDS011;43305;52.186;5.598;2023-09-19T10:44:20;13.70;;;2.33;;
18929;SDS011;43305;52.186;5.598;2023-09-19T10:46:50;13.50;;;2.20;;
18929;SDS011;43305;52.186;5.598;2023-09-19T10:49:18;8.82;;;1.80;;
18929;SDS011;43305;52.186;5.598;2023-09-19T10:51:45;10.52;;;1.75;;
18929;SDS011;43305;52.186;5.598;2023-09-19T10:54:16;12.43;;;2.53;;
18929;SDS011;43305;52.186;5.598;2023-09-19T10:56:46;10.52;;;2.30;;
18929;SDS011;43305;52.186;5.598;2023-09-19T10:59:16;10.15;;;2.35;;
18929;SDS011;43305;52.186;5.598;2023-09-19T11:01:46;12.32;;;2.28;;
18929;SDS011;43305;52.186;5.598;2023-09-19T11:04:23;14.88;;;2.70;;
18929;SDS011;43305;52.186;5.598;2023-09-19T11:07:00;14.00;;;2.53;;
18929;SDS011;43305;52.186;5.598;2023-09-19T11:09:45;10.63;;;2.15;;
18929;SDS011;43305;52.186;5.598;2023-09-19T11:16:02;13.77;;;2.75;;
18929;SDS011;43305;52.186;5.598;2023-09-19T11:18:53;12.35;;;2.40;;
18929;SDS011;43305;52.186;5.598;2023-09-19T11:24:27;10.32;;;2.53;;
18929;SDS011;43305;52.186;5.598;2023-09-19T11:27:08;8.43;;;1.95;;
18929;SDS011;43305;52.186;5.598;2023-09-19T11:29:42;8.93;;;2.00;;
18929;SDS011;43305;52.186;5.598;2023-09-19T11:32:09;11.30;;;2.22;;
18929;SDS011;43305;52.186;5.598;2023-09-19T11:34:44;12.43;;;1.88;;
18929;SDS011;43305;52.186;5.598;2023-09-19T11:40:44;10.57;;;2.15;;
18929;SDS011;43305;52.186;5.598;2023-09-19T11:43:32;12.25;;;2.20;;
18929;SDS011;43305;52.186;5.598;2023-09-19T11:46:08;10.40;;;2.05;;
18929;SDS011;43305;52.186;5.598;2023-09-19T11:48:41;7.13;;;1.83;;
18929;SDS011;43305;52.186;5.598;2023-09-19T11:51:14;7.18;;;1.85;;
18929;SDS011;43305;52.186;5.598;2023-09-19T11:53:47;10.82;;;1.75;;
18929;SDS011;43305;52.186;5.598;2023-09-19T11:56:15;10.88;;;1.95;;
18929;SDS011;43305;52.186;5.598;2023-09-19T11:58:44;9.77;;;1.52;;
18929;SDS011;43305;52.186;5.598;2023-09-19T12:01:14;7.70;;;1.58;;
18929;SDS011;43305;52.186;5.598;2023-09-19T12:03:47;11.25;;;1.63;;
18929;SDS011;43305;52.186;5.598;2023-09-19T12:06:20;7.15;;;1.50;;
18929;SDS011;43305;52.186;5.598;2023-09-19T12:08:48;11.80;;;1.90;;
18929;SDS011;43305;52.186;5.598;2023-09-19T12:11:19;8.98;;;1.70;;
18929;SDS011;43305;52.186;5.598;2023-09-19T12:13:48;9.38;;;1.50;;
18929;SDS011;43305;52.186;5.598;2023-09-19T12:16:17;15.30;;;1.70;;
18929;SDS011;43305;52.186;5.598;2023-09-19T12:18:47;11.60;;;1.90;;
18929;SDS011;43305;52.186;5.598;2023-09-19T12:21:26;8.25;;;1.67;;
18929;SDS011;43305;52.186;5.598;2023-09-19T12:24:06;9.82;;;1.55;;
18929;SDS011;43305;52.186;5.598;2023-09-19T12:26:41;10.00;;;1.67;;
18929;SDS011;43305;52.186;5.598;2023-09-19T12:29:13;8.23;;;1.58;;
18929;SDS011;43305;52.186;5.598;2023-09-19T12:31:48;5.07;;;1.45;;
18929;SDS011;43305;52.186;5.598;2023-09-19T12:34:17;7.93;;;1.48;;
18929;SDS011;43305;52.186;5.598;2023-09-19T12:36:48;9.73;;;1.50;;
18929;SDS011;43305;52.186;5.598;2023-09-19T12:39:24;7.80;;;1.60;;
18929;SDS011;43305;52.186;5.598;2023-09-19T12:41:52;5.57;;;1.15;;
18929;SDS011;43305;52.186;5.598;2023-09-19T12:44:19;8.20;;;1.40;;
18929;SDS011;43305;52.186;5.598;2023-09-19T12:46:50;5.43;;;1.15;;
18929;SDS011;43305;52.186;5.598;2023-09-19T12:49:18;6.10;;;1.42;;
18929;SDS011;43305;52.186;5.598;2023-09-19T12:51:46;7.03;;;1.40;;
18929;SDS011;43305;52.186;5.598;2023-09-19T12:54:14;8.50;;;1.35;;
18929;SDS011;43305;52.186;5.598;2023-09-19T12:56:42;7.40;;;1.40;;
18929;SDS011;43305;52.186;5.598;2023-09-19T12:59:11;5.95;;;1.17;;
18929;SDS011;43305;52.186;5.598;2023-09-19T13:01:42;6.40;;;1.40;;
18929;SDS011;43305;52.186;5.598;2023-09-19T13:04:14;9.00;;;1.35;;
18929;SDS011;43305;52.186;5.598;2023-09-19T13:06:44;6.15;;;1.30;;
18929;SDS011;43305;52.186;5.598;2023-09-19T13:09:15;6.80;;;1.10;;
18929;SDS011;43305;52.186;5.598;2023-09-19T13:11:43;5.20;;;1.10;;
18929;SDS011;43305;52.186;5.598;2023-09-19T13:14:13;5.45;;;1.23;;
18929;SDS011;43305;52.186;5.598;2023-09-19T13:16:52;6.53;;;1.35;;
18929;SDS011;43305;52.186;5.598;2023-09-19T13:19:38;5.68;;;1.15;;
18929;SDS011;43305;52.186;5.598;2023-09-19T13:25:07;6.32;;;1.23;;
18929;SDS011;43305;52.186;5.598;2023-09-19T13:27:38;7.13;;;1.27;;
18929;SDS011;43305;52.186;5.598;2023-09-19T13:30:06;7.07;;;1.40;;
18929;SDS011;43305;52.186;5.598;2023-09-19T13:32:34;8.77;;;1.10;;
18929;SDS011;43305;52.186;5.598;2023-09-19T13:35:01;5.65;;;1.30;;
18929;SDS011;43305;52.186;5.598;2023-09-19T13:37:34;9.57;;;1.20;;
18929;SDS011;43305;52.186;5.598;2023-09-19T13:40:03;5.50;;;1.10;;
18929;SDS011;43305;52.186;5.598;2023-09-19T13:42:32;6.50;;;1.40;;
18929;SDS011;43305;52.186;5.598;2023-09-19T13:45:01;5.65;;;0.95;;
18929;SDS011;43305;52.186;5.598;2023-09-19T13:47:36;5.18;;;1.10;;
18929;SDS011;43305;52.186;5.598;2023-09-19T13:50:04;9.93;;;1.23;;
18929;SDS011;43305;52.186;5.598;2023-09-19T13:52:33;7.22;;;1.48;;
18929;SDS011;43305;52.186;5.598;2023-09-19T13:55:00;6.18;;;1.15;;
18929;SDS011;43305;52.186;5.598;2023-09-19T13:57:29;5.70;;;1.00;;
18929;SDS011;43305;52.186;5.598;2023-09-19T13:59:56;7.28;;;1.10;;
18929;SDS011;43305;52.186;5.598;2023-09-19T14:02:22;7.15;;;1.25;;
18929;SDS011;43305;52.186;5.598;2023-09-19T14:04:50;6.32;;;1.40;;
18929;SDS011;43305;52.186;5.598;2023-09-19T14:07:17;4.60;;;1.10;;
18929;SDS011;43305;52.186;5.598;2023-09-19T14:09:45;6.18;;;1.10;;
18929;SDS011;43305;52.186;5.598;2023-09-19T14:12:12;4.50;;;1.30;;
18929;SDS011;43305;52.186;5.598;2023-09-19T14:14:41;7.35;;;1.33;;
18929;SDS011;43305;52.186;5.598;2023-09-19T14:17:10;4.13;;;0.93;;
18929;SDS011;43305;52.186;5.598;2023-09-19T14:19:40;6.90;;;1.27;;
18929;SDS011;43305;52.186;5.598;2023-09-19T14:22:08;8.40;;;1.20;;
18929;SDS011;43305;52.186;5.598;2023-09-19T14:24:36;3.75;;;1.10;;
18929;SDS011;43305;52.186;5.598;2023-09-19T14:27:03;7.35;;;1.00;;
18929;SDS011;43305;52.186;5.598;2023-09-19T14:29:32;5.13;;;1.00;;
18929;SDS011;43305;52.186;5.598;2023-09-19T14:32:00;5.70;;;1.10;;
18929;SDS011;43305;52.186;5.598;2023-09-19T14:34:28;3.95;;;1.17;;
18929;SDS011;43305;52.186;5.598;2023-09-19T14:36:54;4.65;;;1.10;;
18929;SDS011;43305;52.186;5.598;2023-09-19T14:39:21;5.32;;;1.00;;
18929;SDS011;43305;52.186;5.598;2023-09-19T14:41:49;8.75;;;1.42;;
18929;SDS011;43305;52.186;5.598;2023-09-19T14:44:16;7.30;;;1.52;;
18929;SDS011;43305;52.186;5.598;2023-09-19T14:46:43;4.82;;;1.30;;
18929;SDS011;43305;52.186;5.598;2023-09-19T14:49:12;5.03;;;1.52;;
18929;SDS011;43305;52.186;5.598;2023-09-19T14:51:41;4.57;;;1.45;;
18929;SDS011;43305;52.186;5.598;2023-09-19T14:54:09;4.45;;;1.30;;
18929;SDS011;43305;52.186;5.598;2023-09-19T14:56:36;6.53;;;1.40;;
18929;SDS011;43305;52.186;5.598;2023-09-19T14:59:03;9.02;;;1.83;;
18929;SDS011;43305;52.186;5.598;2023-09-19T15:01:30;6.20;;;1.33;;
18929;SDS011;43305;52.186;5.598;2023-09-19T15:03:57;5.25;;;1.40;;
18929;SDS011;43305;52.186;5.598;2023-09-19T15:06:27;7.07;;;1.50;;
18929;SDS011;43305;52.186;5.598;2023-09-19T15:08:54;6.85;;;1.40;;